createdAt,value
2018-12-30T00:00:13.693Z,0.51
2018-12-30T00:02:43.184Z,0.55
2018-12-30T00:05:13.154Z,0.54
2018-12-30T00:07:42.647Z,0.62
2018-12-30T00:10:12.169Z,0.58
2018-12-30T00:12:41.657Z,0.62
2018-12-30T00:15:11.562Z,0.58
2018-12-30T00:17:41.040Z,0.68
2018-12-30T00:20:10.596Z,0.55
2018-12-30T00:22:40.106Z,0.63
2018-12-30T00:25:09.620Z,0.86
2018-12-30T00:27:39.115Z,0.80
2018-12-30T00:30:09.765Z,0.81
2018-12-30T00:32:39.437Z,0.85
2018-12-30T00:35:08.924Z,0.81
2018-12-30T00:37:38.411Z,0.86
2018-12-30T00:40:08.062Z,0.80
2018-12-30T00:42:37.926Z,0.79
2018-12-30T00:45:07.420Z,0.94
2018-12-30T00:47:37.135Z,1.00
2018-12-30T00:50:06.707Z,0.97
2018-12-30T00:52:36.201Z,0.95
2018-12-30T00:55:06.147Z,0.89
2018-12-30T00:57:35.735Z,1.04
2018-12-30T01:00:08.288Z,1.13
2018-12-30T01:02:37.807Z,0.97
2018-12-30T01:05:07.432Z,1.01
2018-12-30T01:07:37.096Z,0.99
2018-12-30T01:10:09.167Z,1.08
2018-12-30T01:12:38.710Z,1.19
2018-12-30T01:15:08.262Z,1.12
2018-12-30T01:17:37.827Z,1.19
2018-12-30T01:20:07.324Z,1.34
2018-12-30T01:22:37.757Z,1.33
2018-12-30T01:25:07.488Z,1.35
2018-12-30T01:27:37.073Z,1.36
2018-12-30T01:30:07.894Z,1.37
2018-12-30T01:32:37.392Z,1.39
2018-12-30T01:35:07.019Z,1.36
2018-12-30T01:37:36.557Z,1.37
2018-12-30T01:40:06.434Z,1.41
2018-12-30T01:42:35.936Z,1.48
2018-12-30T01:45:06.251Z,1.41
2018-12-30T01:47:35.760Z,1.39
2018-12-30T01:50:06.157Z,1.43
2018-12-30T01:52:35.697Z,1.49
2018-12-30T01:55:05.691Z,1.49
2018-12-30T01:57:35.200Z,1.60
2018-12-30T02:00:06.200Z,1.48
2018-12-30T02:02:35.703Z,1.62
2018-12-30T02:05:05.516Z,1.66
2018-12-30T02:07:35.003Z,1.55
2018-12-30T02:10:06.296Z,1.64
2018-12-30T02:12:35.815Z,1.62
2018-12-30T02:15:05.821Z,1.53
2018-12-30T02:17:35.312Z,1.63
2018-12-30T02:20:05.932Z,1.61
2018-12-30T02:22:35.642Z,1.56
2018-12-30T02:25:05.354Z,1.47
2018-12-30T02:27:34.837Z,1.59
2018-12-30T02:30:05.188Z,1.65
2018-12-30T02:32:34.701Z,1.65
2018-12-30T02:35:04.360Z,1.65
2018-12-30T02:37:33.869Z,1.70
2018-12-30T02:40:03.429Z,1.67
2018-12-30T02:42:32.939Z,1.71
2018-12-30T02:45:02.428Z,1.60
2018-12-30T02:47:31.936Z,1.68
2018-12-30T02:50:02.661Z,1.72
2018-12-30T02:52:32.159Z,1.70
2018-12-30T02:55:01.658Z,1.65
2018-12-30T02:57:31.324Z,1.54
2018-12-30T03:00:00.818Z,1.63
2018-12-30T03:02:31.309Z,1.65
2018-12-30T03:05:00.796Z,1.72
2018-12-30T03:07:30.303Z,1.68
2018-12-30T03:09:59.796Z,1.66
2018-12-30T03:12:29.296Z,1.75
2018-12-30T03:14:59.605Z,1.78
2018-12-30T03:17:30.163Z,1.74
2018-12-30T03:19:59.755Z,1.79
2018-12-30T03:22:29.238Z,1.79
2018-12-30T03:24:58.741Z,1.89
2018-12-30T03:27:28.861Z,1.92
2018-12-30T03:29:58.351Z,1.93
2018-12-30T03:32:27.851Z,1.98
2018-12-30T03:34:57.334Z,1.87
2018-12-30T03:37:26.819Z,1.94
2018-12-30T03:39:57.056Z,1.86
2018-12-30T03:42:26.608Z,1.95
2018-12-30T03:44:56.130Z,2.04
2018-12-30T03:47:25.615Z,1.92
2018-12-30T03:49:55.397Z,1.83
2018-12-30T03:52:26.146Z,1.90
2018-12-30T03:54:55.648Z,2.10
2018-12-30T03:57:25.150Z,1.97
2018-12-30T03:59:54.659Z,1.89
2018-12-30T04:02:24.154Z,1.79
2018-12-30T04:04:54.902Z,1.96
2018-12-30T04:07:24.402Z,1.93
2018-12-30T04:09:53.906Z,1.95
2018-12-30T04:12:23.403Z,1.88
2018-12-30T04:14:52.909Z,1.89
2018-12-30T04:17:22.443Z,1.89
2018-12-30T04:19:51.933Z,1.96
2018-12-30T04:22:21.467Z,1.96
2018-12-30T04:24:50.978Z,1.92
2018-12-30T04:27:22.108Z,1.91
2018-12-30T04:29:51.878Z,1.85
2018-12-30T04:32:21.374Z,1.83
2018-12-30T04:34:50.889Z,1.74
2018-12-30T04:37:20.405Z,1.81
2018-12-30T04:39:49.915Z,1.67
2018-12-30T04:42:20.184Z,1.74
2018-12-30T04:44:49.692Z,1.77
2018-12-30T04:47:19.184Z,1.78
2018-12-30T04:49:48.697Z,1.78
2018-12-30T04:52:25.411Z,1.91
2018-12-30T04:54:49.436Z,1.80
2018-12-30T04:57:18.924Z,1.80
2018-12-30T04:59:48.437Z,1.83
2018-12-30T05:02:17.930Z,1.79
2018-12-30T05:04:47.461Z,1.86
2018-12-30T05:07:17.252Z,1.77
2018-12-30T05:09:46.756Z,1.77
2018-12-30T05:12:29.572Z,1.72
2018-12-30T05:14:59.087Z,1.06
2018-12-30T05:17:28.644Z,1.96
2018-12-30T05:19:58.491Z,1.79
2018-12-30T05:22:33.797Z,1.97
2018-12-30T05:24:59.262Z,1.83
2018-12-30T05:27:28.778Z,1.86
2018-12-30T05:29:58.295Z,1.82
2018-12-30T05:32:27.853Z,1.78
2018-12-30T05:34:57.345Z,1.82
2018-12-30T05:37:26.842Z,1.91
2018-12-30T05:39:56.353Z,1.83
2018-12-30T05:42:25.864Z,1.83
2018-12-30T05:44:55.388Z,1.79
2018-12-30T05:47:24.869Z,1.76
2018-12-30T05:49:54.382Z,1.73
2018-12-30T05:52:23.877Z,1.82
2018-12-30T05:54:53.519Z,1.81
2018-12-30T05:57:23.011Z,1.84
2018-12-30T05:59:52.546Z,1.78
2018-12-30T06:02:22.213Z,1.70
2018-12-30T06:04:51.793Z,1.73
2018-12-30T06:07:21.283Z,1.81
2018-12-30T06:09:50.794Z,1.82
2018-12-30T06:12:20.293Z,1.82
2018-12-30T06:14:49.973Z,1.81
2018-12-30T06:17:19.466Z,1.77
2018-12-30T06:19:48.975Z,1.73
2018-12-30T06:22:18.466Z,1.77
2018-12-30T06:24:48.034Z,1.72
2018-12-30T06:27:18.225Z,1.77
2018-12-30T06:29:47.750Z,1.87
2018-12-30T06:32:17.237Z,1.92
2018-12-30T06:34:46.819Z,1.74
2018-12-30T06:37:16.308Z,1.69
2018-12-30T06:39:46.404Z,1.84
2018-12-30T06:42:15.876Z,1.82
2018-12-30T06:44:45.384Z,1.70
2018-12-30T06:47:14.874Z,1.68
2018-12-30T06:49:44.371Z,1.68
2018-12-30T06:52:14.604Z,1.83
2018-12-30T06:54:44.117Z,1.82
2018-12-30T06:57:13.683Z,1.80
2018-12-30T06:59:43.180Z,1.74
2018-12-30T07:02:12.750Z,1.84
2018-12-30T07:04:42.241Z,1.75
2018-12-30T07:07:11.742Z,1.65
2018-12-30T07:09:41.255Z,1.73
2018-12-30T07:12:10.765Z,1.72
2018-12-30T07:14:40.264Z,1.74
2018-12-30T07:17:11.005Z,1.74
2018-12-30T07:19:40.549Z,1.80
2018-12-30T07:22:10.267Z,1.89
2018-12-30T07:24:39.763Z,1.73
2018-12-30T07:27:09.247Z,1.70
2018-12-30T07:29:39.648Z,1.64
2018-12-30T07:32:09.140Z,1.64
2018-12-30T07:34:38.650Z,1.64
2018-12-30T07:37:08.154Z,1.64
2018-12-30T07:39:37.637Z,1.61
2018-12-30T07:42:07.806Z,1.62
2018-12-30T07:44:37.318Z,1.62
2018-12-30T07:47:06.813Z,1.63
2018-12-30T07:49:36.317Z,1.82
2018-12-30T07:52:05.830Z,1.65
2018-12-30T07:54:36.157Z,1.61
2018-12-30T07:57:05.726Z,1.90
2018-12-30T07:59:35.215Z,1.69
2018-12-30T08:02:04.762Z,1.59
2018-12-30T08:04:34.283Z,1.77
2018-12-30T08:07:03.795Z,1.77
2018-12-30T08:09:33.301Z,1.73
2018-12-30T08:12:02.809Z,1.65
2018-12-30T08:14:32.484Z,1.68
2018-12-30T08:17:01.985Z,1.68
2018-12-30T08:19:32.431Z,1.74
2018-12-30T08:22:01.942Z,1.74
2018-12-30T08:24:31.430Z,1.74
2018-12-30T08:27:00.940Z,1.70
2018-12-30T08:29:30.575Z,1.67
2018-12-30T08:32:00.642Z,1.81
2018-12-30T08:34:30.143Z,1.81
2018-12-30T08:36:59.655Z,1.87
2018-12-30T08:39:29.156Z,1.86
2018-12-30T08:41:58.736Z,1.87
2018-12-30T08:44:28.914Z,1.89
2018-12-30T08:46:58.488Z,1.99
2018-12-30T08:49:27.992Z,2.01
2018-12-30T08:51:57.495Z,2.05
2018-12-30T08:54:26.999Z,2.03
2018-12-30T08:56:56.483Z,2.13
2018-12-30T08:59:26.012Z,2.17
2018-12-30T09:01:55.525Z,2.17
2018-12-30T09:04:25.014Z,2.14
2018-12-30T09:06:54.533Z,2.11
2018-12-30T09:09:25.301Z,2.19
2018-12-30T09:11:54.810Z,2.25
2018-12-30T09:14:24.297Z,2.38
2018-12-30T09:16:53.834Z,2.28
2018-12-30T09:19:23.338Z,2.50
2018-12-30T09:21:53.945Z,2.29
2018-12-30T09:24:23.432Z,2.31
2018-12-30T09:26:52.939Z,2.23
2018-12-30T09:29:22.471Z,2.30
2018-12-30T09:31:51.956Z,2.37
2018-12-30T09:34:22.342Z,2.50
2018-12-30T09:36:53.344Z,2.46
2018-12-30T09:39:22.985Z,2.64
2018-12-30T09:41:52.511Z,2.51
2018-12-30T09:44:22.003Z,2.63
2018-12-30T09:46:51.500Z,2.59
2018-12-30T09:49:21.040Z,2.68
2018-12-30T09:51:50.550Z,2.58
2018-12-30T09:54:20.097Z,2.59
2018-12-30T09:56:49.613Z,2.70
2018-12-30T09:59:19.119Z,2.59
2018-12-30T10:01:48.633Z,2.48
2018-12-30T10:04:18.161Z,2.51
2018-12-30T10:06:47.625Z,2.58
2018-12-30T10:09:17.212Z,2.82
2018-12-30T10:11:46.738Z,3.02
2018-12-30T10:14:16.230Z,2.85
2018-12-30T10:16:45.729Z,2.83
2018-12-30T10:19:15.257Z,2.77
2018-12-30T10:21:44.784Z,2.61
2018-12-30T10:24:14.268Z,2.70
2018-12-30T10:26:43.787Z,2.61
2018-12-30T10:29:13.280Z,2.52
2018-12-30T10:31:42.793Z,2.62
2018-12-30T10:34:12.321Z,2.79
2018-12-30T10:36:41.808Z,2.64
2018-12-30T10:39:11.314Z,2.67
2018-12-30T10:41:40.842Z,2.78
2018-12-30T10:44:10.371Z,2.63
2018-12-30T10:46:39.853Z,2.71
2018-12-30T10:49:09.389Z,2.95
2018-12-30T10:51:38.875Z,2.81
2018-12-30T10:54:08.390Z,2.80
2018-12-30T10:56:37.889Z,2.97
2018-12-30T10:59:07.424Z,3.03
2018-12-30T11:01:36.908Z,3.02
2018-12-30T11:04:06.442Z,3.14
2018-12-30T11:06:35.926Z,3.16
2018-12-30T11:09:07.638Z,2.89
2018-12-30T11:11:37.177Z,3.02
2018-12-30T11:14:06.980Z,2.82
2018-12-30T11:16:37.721Z,2.81
2018-12-30T11:19:07.252Z,2.71
2018-12-30T11:21:36.755Z,2.63
2018-12-30T11:24:08.741Z,2.73
2018-12-30T11:26:37.498Z,2.65
2018-12-30T11:29:07.051Z,2.79
2018-12-30T11:31:36.548Z,2.92
2018-12-30T11:34:06.166Z,2.77
2018-12-30T11:36:35.689Z,2.98
2018-12-30T11:39:06.412Z,2.90
2018-12-30T11:41:35.904Z,2.96
2018-12-30T11:44:05.498Z,2.94
2018-12-30T11:46:34.991Z,2.78
2018-12-30T11:49:04.517Z,2.95
2018-12-30T11:51:34.013Z,2.98
2018-12-30T11:54:03.551Z,3.02
2018-12-30T11:56:33.037Z,2.79
2018-12-30T11:59:02.572Z,3.10
2018-12-30T12:01:32.080Z,3.09
2018-12-30T12:04:01.609Z,2.99
2018-12-30T12:06:31.119Z,3.09
2018-12-30T12:09:00.640Z,2.98
2018-12-30T12:11:31.038Z,3.08
2018-12-30T12:14:00.568Z,2.95
2018-12-30T12:16:30.174Z,3.06
2018-12-30T12:18:59.731Z,2.89
2018-12-30T12:21:29.218Z,3.02
2018-12-30T12:23:58.840Z,2.86
2018-12-30T12:26:28.389Z,2.91
2018-12-30T12:28:57.919Z,2.85
2018-12-30T12:31:27.461Z,2.97
2018-12-30T12:33:57.199Z,2.96
2018-12-30T12:36:26.685Z,2.96
2018-12-30T12:38:56.184Z,2.95
2018-12-30T12:41:25.740Z,3.20
2018-12-30T12:43:55.772Z,2.90
2018-12-30T12:46:25.284Z,3.01
2018-12-30T12:48:54.807Z,2.93
2018-12-30T12:51:24.354Z,2.88
2018-12-30T12:53:53.886Z,2.78
2018-12-30T12:56:24.045Z,2.96
2018-12-30T12:58:53.580Z,2.90
2018-12-30T13:01:23.064Z,3.06
2018-12-30T13:03:52.601Z,3.17
2018-12-30T13:06:22.083Z,3.10
2018-12-30T13:08:52.244Z,3.03
2018-12-30T13:11:21.775Z,3.08
2018-12-30T13:13:51.306Z,3.02
2018-12-30T13:16:20.909Z,3.08
2018-12-30T13:18:50.442Z,2.95
2018-12-30T13:21:20.476Z,2.95
2018-12-30T13:23:50.012Z,3.06
2018-12-30T13:26:19.502Z,3.05
2018-12-30T13:28:49.069Z,3.09
2018-12-30T13:31:18.618Z,3.00
2018-12-30T13:33:48.717Z,3.09
2018-12-30T13:36:18.241Z,3.17
2018-12-30T13:38:47.738Z,2.98
2018-12-30T13:41:17.277Z,2.93
2018-12-30T13:43:46.833Z,2.95
2018-12-30T13:46:16.377Z,2.97
2018-12-30T13:48:45.862Z,3.06
2018-12-30T13:51:15.396Z,3.12
2018-12-30T13:53:44.883Z,3.06
2018-12-30T13:56:14.722Z,3.09
2018-12-30T13:58:45.319Z,3.00
2018-12-30T14:01:14.886Z,3.03
2018-12-30T14:03:44.446Z,3.02
2018-12-30T14:06:13.990Z,2.97
2018-12-30T14:08:43.540Z,3.09
2018-12-30T14:11:13.419Z,2.99
2018-12-30T14:13:42.910Z,2.91
2018-12-30T14:16:12.491Z,2.93
2018-12-30T14:18:42.010Z,2.97
2018-12-30T14:21:11.497Z,3.09
2018-12-30T14:23:41.017Z,3.04
2018-12-30T14:26:10.748Z,3.07
2018-12-30T14:28:40.231Z,3.03
2018-12-30T14:31:09.794Z,3.02
2018-12-30T14:33:39.341Z,2.98
2018-12-30T14:36:09.842Z,2.98
2018-12-30T14:38:39.366Z,2.96
2018-12-30T14:41:08.864Z,3.00
2018-12-30T14:43:38.395Z,2.91
2018-12-30T14:46:07.890Z,2.93
2018-12-30T14:48:38.059Z,2.96
2018-12-30T14:51:07.661Z,2.83
2018-12-30T14:53:37.150Z,2.83
2018-12-30T14:56:06.636Z,2.91
2018-12-30T14:58:36.171Z,2.97
2018-12-30T15:01:06.349Z,2.86
2018-12-30T15:03:35.886Z,2.78
2018-12-30T15:06:05.370Z,2.77
2018-12-30T15:08:35.002Z,2.89
2018-12-30T15:11:04.529Z,2.96
2018-12-30T15:13:34.504Z,2.94
2018-12-30T15:16:04.095Z,2.83
2018-12-30T15:18:33.689Z,2.81
2018-12-30T15:21:03.117Z,2.82
2018-12-30T15:23:32.679Z,2.70
2018-12-30T15:26:02.162Z,2.64
2018-12-30T15:28:31.692Z,2.82
2018-12-30T15:31:01.181Z,2.82
2018-12-30T15:33:31.208Z,2.72
2018-12-30T15:36:00.698Z,2.86
2018-12-30T15:38:30.776Z,2.81
2018-12-30T15:41:00.259Z,2.81
2018-12-30T15:43:29.749Z,2.87
2018-12-30T15:45:59.300Z,2.81
2018-12-30T15:48:28.793Z,2.83
2018-12-30T15:50:59.020Z,2.84
2018-12-30T15:53:28.570Z,2.86
2018-12-30T15:55:58.063Z,2.70
2018-12-30T15:58:27.597Z,2.80
2018-12-30T16:00:57.141Z,2.70
2018-12-30T16:03:27.154Z,2.80
2018-12-30T16:05:57.795Z,2.81
2018-12-30T16:08:27.717Z,2.74
2018-12-30T16:10:57.223Z,2.69
2018-12-30T16:13:26.726Z,2.87
2018-12-30T16:15:56.471Z,2.76
2018-12-30T16:18:26.008Z,2.65
2018-12-30T16:20:55.570Z,2.75
2018-12-30T16:23:25.104Z,2.73
2018-12-30T16:25:54.590Z,2.59
2018-12-30T16:28:24.695Z,2.65
2018-12-30T16:30:54.193Z,2.55
2018-12-30T16:33:23.729Z,2.54
2018-12-30T16:35:53.214Z,2.65
2018-12-30T16:38:22.697Z,2.66
2018-12-30T16:40:52.239Z,2.63
2018-12-30T16:43:21.762Z,2.47
2018-12-30T16:45:51.306Z,2.46
2018-12-30T16:48:20.835Z,2.48
2018-12-30T16:50:50.320Z,2.55
2018-12-30T16:53:20.858Z,2.46
2018-12-30T16:55:50.354Z,2.41
2018-12-30T16:58:19.889Z,2.38
2018-12-30T17:00:49.375Z,2.40
2018-12-30T17:03:18.906Z,2.43
2018-12-30T17:05:49.000Z,2.35
2018-12-30T17:08:18.529Z,2.43
2018-12-30T17:10:48.022Z,2.47
2018-12-30T17:13:17.792Z,2.46
2018-12-30T17:15:47.291Z,2.41
2018-12-30T17:18:18.016Z,2.48
2018-12-30T17:20:47.808Z,2.40
2018-12-30T17:23:17.291Z,2.31
2018-12-30T17:25:46.783Z,2.38
2018-12-30T17:28:16.317Z,2.43
2018-12-30T17:30:46.658Z,2.47
2018-12-30T17:33:16.409Z,2.63
2018-12-30T17:35:46.294Z,2.43
2018-12-30T17:38:15.766Z,2.52
2018-12-30T17:40:45.301Z,2.56
2018-12-30T17:43:15.926Z,2.55
2018-12-30T17:45:45.448Z,2.49
2018-12-30T17:48:14.980Z,2.46
2018-12-30T17:50:44.462Z,2.29
2018-12-30T17:53:13.993Z,2.31
2018-12-30T17:55:50.538Z,1.99
2018-12-30T17:58:15.468Z,1.85
2018-12-30T18:00:44.962Z,1.70
2018-12-30T18:03:14.498Z,1.91
2018-12-30T18:05:43.990Z,1.81
2018-12-30T18:08:13.590Z,1.59
2018-12-30T18:10:43.068Z,1.32
2018-12-30T18:13:12.636Z,1.18
2018-12-30T18:15:42.137Z,1.09
2018-12-30T18:18:11.631Z,1.32
2018-12-30T18:20:41.177Z,1.52
2018-12-30T18:23:10.721Z,1.54
2018-12-30T18:25:40.223Z,1.35
2018-12-30T18:28:09.752Z,1.48
2018-12-30T18:30:39.247Z,1.20
2018-12-30T18:33:08.946Z,1.56
2018-12-30T18:35:38.479Z,1.22
2018-12-30T18:38:08.025Z,1.03
2018-12-30T18:40:37.503Z,0.99
2018-12-30T18:43:07.057Z,0.88
2018-12-30T18:45:36.543Z,0.94
2018-12-30T18:48:06.104Z,0.84
2018-12-30T18:50:35.647Z,0.90
2018-12-30T18:53:05.198Z,1.03
2018-12-30T18:55:34.754Z,1.35
2018-12-30T18:58:05.396Z,1.10
2018-12-30T19:00:34.887Z,0.97
2018-12-30T19:03:04.439Z,0.88
2018-12-30T19:05:34.065Z,0.78
2018-12-30T19:08:42.034Z,0.75
2018-12-30T19:11:11.579Z,0.44
2018-12-30T19:13:41.073Z,0.72
2018-12-30T19:16:10.569Z,0.74
2018-12-30T19:18:40.106Z,0.75
2018-12-30T19:21:09.646Z,0.75
2018-12-30T19:23:39.191Z,0.90
2018-12-30T19:26:14.312Z,1.14
2018-12-30T19:28:39.963Z,1.40
2018-12-30T19:31:09.456Z,1.55
2018-12-30T19:33:39.067Z,1.67
2018-12-30T19:36:08.627Z,1.76
2018-12-30T19:38:38.124Z,1.93
2018-12-30T19:41:07.665Z,1.99
2018-12-30T19:43:37.225Z,2.09
2018-12-30T19:46:06.758Z,2.15
2018-12-30T19:48:36.236Z,2.16
2018-12-30T19:51:25.247Z,2.33
2018-12-30T19:53:54.771Z,2.25
2018-12-30T19:56:24.245Z,2.25
2018-12-30T19:58:53.730Z,2.31
2018-12-30T20:01:23.265Z,2.32
2018-12-30T20:03:52.740Z,2.33
2018-12-30T20:06:22.344Z,2.34
2018-12-30T20:08:51.842Z,2.38
2018-12-30T20:11:21.400Z,2.34
2018-12-30T20:13:50.921Z,2.35
2018-12-30T20:16:20.452Z,2.41
2018-12-30T20:18:49.935Z,2.37
2018-12-30T20:21:19.472Z,2.36
2018-12-30T20:23:48.960Z,2.36
2018-12-30T20:26:18.491Z,2.44
2018-12-30T20:28:47.980Z,2.47
2018-12-30T20:31:17.509Z,2.44
2018-12-30T20:33:47.008Z,2.39
2018-12-30T20:36:16.536Z,2.64
2018-12-30T20:38:46.029Z,2.62
2018-12-30T20:41:15.561Z,2.62
2018-12-30T20:43:45.144Z,2.72
2018-12-30T20:46:14.644Z,2.75
2018-12-30T20:48:44.133Z,2.82
2018-12-30T20:51:13.769Z,2.71
2018-12-30T20:53:43.252Z,2.85
2018-12-30T20:56:12.790Z,2.94
2018-12-30T20:58:42.274Z,2.76
2018-12-30T21:01:11.807Z,2.92
2018-12-30T21:03:41.287Z,2.81
2018-12-30T21:06:10.836Z,2.70
2018-12-30T21:08:40.319Z,2.96
2018-12-30T21:11:29.198Z,2.87
2018-12-30T21:13:58.711Z,2.70
2018-12-30T21:16:28.245Z,2.95
2018-12-30T21:18:57.741Z,2.81
2018-12-30T21:21:27.312Z,2.78
2018-12-30T21:23:56.799Z,2.81
2018-12-30T21:26:26.357Z,2.77
2018-12-30T21:28:55.868Z,2.97
2018-12-30T21:31:25.398Z,2.95
2018-12-30T21:33:54.901Z,2.99
2018-12-30T21:36:24.556Z,2.69
2018-12-30T21:38:54.047Z,2.84
2018-12-30T21:41:23.582Z,2.76
2018-12-30T21:43:53.086Z,2.73
2018-12-30T21:46:22.620Z,2.63
2018-12-30T21:48:52.118Z,2.56
2018-12-30T21:51:21.668Z,2.62
2018-12-30T21:53:51.433Z,2.46
2018-12-30T21:56:20.924Z,2.46
2018-12-30T21:58:50.411Z,2.40
2018-12-30T22:01:19.944Z,2.37
2018-12-30T22:03:49.459Z,2.56
2018-12-30T22:06:19.001Z,2.88
2018-12-30T22:08:48.495Z,2.83
2018-12-30T22:11:19.249Z,2.80
2018-12-30T22:13:48.738Z,2.78
2018-12-30T22:16:18.270Z,2.98
2018-12-30T22:18:47.760Z,2.71
2018-12-30T22:21:17.292Z,2.67
2018-12-30T22:23:47.487Z,2.80
2018-12-30T22:26:17.102Z,2.70
2018-12-30T22:28:46.615Z,2.49
2018-12-30T22:31:16.147Z,2.48
2018-12-30T22:33:45.636Z,2.46
2018-12-30T22:36:15.806Z,2.37
2018-12-30T22:38:45.309Z,2.29
2018-12-30T22:41:14.821Z,2.33
2018-12-30T22:43:44.334Z,2.35
2018-12-30T22:46:13.820Z,2.26
2018-12-30T22:48:43.415Z,2.35
2018-12-30T22:51:12.933Z,2.37
2018-12-30T22:53:42.430Z,2.30
2018-12-30T22:56:12.069Z,2.33
2018-12-30T22:58:41.613Z,2.11
2018-12-30T23:01:12.857Z,2.16
2018-12-30T23:03:42.392Z,1.97
2018-12-30T23:06:11.986Z,2.15
2018-12-30T23:08:41.484Z,2.12
2018-12-30T23:11:11.007Z,2.11
2018-12-30T23:13:41.033Z,2.09
2018-12-30T23:16:10.524Z,2.18
2018-12-30T23:18:40.040Z,2.04
2018-12-30T23:21:09.533Z,2.02
2018-12-30T23:23:39.050Z,2.18
2018-12-30T23:26:08.552Z,2.15
2018-12-30T23:28:38.059Z,2.07
2018-12-30T23:31:07.559Z,2.03
2018-12-30T23:33:37.067Z,2.00
2018-12-30T23:36:06.589Z,2.13
2018-12-30T23:38:37.323Z,2.06
2018-12-30T23:41:06.828Z,1.86
2018-12-30T23:43:36.342Z,1.94
2018-12-30T23:46:05.833Z,1.81
2018-12-30T23:48:35.344Z,1.90
2018-12-30T23:51:05.012Z,1.75
2018-12-30T23:53:34.474Z,1.88
2018-12-30T23:56:03.960Z,1.97
2018-12-30T23:58:33.467Z,1.97
